createdAt,value
2023-04-28T00:00:05.918Z,5.19
2023-04-28T00:02:50.429Z,5.44
2023-04-28T00:05:34.137Z,5.44
2023-04-28T00:08:17.704Z,5.28
2023-04-28T00:11:01.336Z,5.24
2023-04-28T00:16:48.558Z,5.25
2023-04-28T00:19:32.378Z,5.26
2023-04-28T00:22:15.945Z,5.16
2023-04-28T00:24:59.496Z,5.33
2023-04-28T00:27:43.008Z,5.39
2023-04-28T00:30:26.556Z,5.34
2023-04-28T00:33:12.724Z,5.34
2023-04-28T00:36:00.968Z,5.31
2023-04-28T00:38:44.477Z,5.30
2023-04-28T00:41:28.013Z,5.37
2023-04-28T00:44:11.583Z,5.31
2023-04-28T00:46:55.228Z,5.09
2023-04-28T00:49:38.937Z,5.34
2023-04-28T00:52:22.456Z,5.24
2023-04-28T00:55:07.750Z,5.09
2023-04-28T00:57:52.022Z,5.08
2023-04-28T01:00:35.831Z,4.95
2023-04-28T01:03:19.548Z,4.97
2023-04-28T01:06:06.654Z,5.01
2023-04-28T01:08:51.199Z,5.00
2023-04-28T01:11:35.028Z,4.90
2023-04-28T01:14:24.704Z,5.10
2023-04-28T01:17:09.096Z,5.15
2023-04-28T01:19:53.317Z,4.80
2023-04-28T01:22:36.995Z,4.70
2023-04-28T01:25:20.893Z,5.16
2023-04-28T01:28:05.032Z,5.03
2023-04-28T01:30:48.586Z,4.84
2023-04-28T01:33:32.268Z,4.68
2023-04-28T01:36:15.782Z,4.76
2023-04-28T01:39:00.970Z,4.66
2023-04-28T01:41:44.611Z,4.76
2023-04-28T01:44:28.594Z,4.75
2023-04-28T01:47:12.419Z,4.71
2023-04-28T01:49:56.051Z,4.71
2023-04-28T01:52:39.550Z,4.74
2023-04-28T01:55:23.259Z,4.65
2023-04-28T01:58:07.455Z,4.73
2023-04-28T02:00:51.244Z,4.61
2023-04-28T02:03:37.095Z,4.84
2023-04-28T02:06:20.951Z,4.94
2023-04-28T02:09:04.616Z,5.08
2023-04-28T02:11:50.508Z,4.94
2023-04-28T02:14:34.088Z,4.91
2023-04-28T02:17:17.572Z,5.06
2023-04-28T02:20:01.239Z,4.92
2023-04-28T02:22:44.839Z,5.17
2023-04-28T02:25:28.954Z,4.91
2023-04-28T02:28:13.254Z,4.82
2023-04-28T02:31:11.771Z,4.80
2023-04-28T02:33:55.366Z,4.68
2023-04-28T02:36:39.637Z,4.78
2023-04-28T02:39:27.010Z,4.74
2023-04-28T02:42:13.051Z,5.06
2023-04-28T02:44:56.682Z,5.08
2023-04-28T02:47:40.268Z,5.00
2023-04-28T02:50:23.827Z,4.98
2023-04-28T02:53:07.407Z,4.83
2023-04-28T02:55:51.003Z,5.06
2023-04-28T02:58:34.695Z,5.08
2023-04-28T03:01:18.625Z,4.97
2023-04-28T03:04:02.341Z,5.09
2023-04-28T03:06:46.217Z,5.24
2023-04-28T03:09:29.713Z,4.82
2023-04-28T03:12:13.327Z,4.13
2023-04-28T03:14:57.156Z,3.75
2023-04-28T03:17:42.374Z,4.07
2023-04-28T03:20:26.032Z,4.73
2023-04-28T03:23:09.588Z,4.84
2023-04-28T03:25:53.512Z,4.91
2023-04-28T03:28:40.267Z,5.06
2023-04-28T03:31:26.572Z,5.13
2023-04-28T03:34:10.207Z,5.01
2023-04-28T03:36:53.909Z,5.00
2023-04-28T03:39:43.129Z,4.84
2023-04-28T03:42:26.782Z,4.77
2023-04-28T03:45:23.927Z,4.83
2023-04-28T03:48:08.359Z,4.87
2023-04-28T03:50:51.967Z,4.92
2023-04-28T03:53:35.523Z,5.07
2023-04-28T03:56:19.136Z,5.03
2023-04-28T03:59:02.721Z,4.93
2023-04-28T04:01:46.453Z,5.11
2023-04-28T04:04:30.489Z,4.96
2023-04-28T04:07:14.637Z,4.92
2023-04-28T04:09:58.177Z,4.89
2023-04-28T04:12:41.913Z,4.82
2023-04-28T04:15:25.521Z,4.86
2023-04-28T04:18:09.689Z,4.97
2023-04-28T04:21:19.384Z,5.09
2023-04-28T04:24:04.198Z,5.20
2023-04-28T04:26:47.922Z,5.10
2023-04-28T04:29:46.528Z,5.28
2023-04-28T04:32:31.470Z,5.09
2023-04-28T04:35:15.136Z,5.42
2023-04-28T04:37:58.925Z,5.43
2023-04-28T04:40:42.573Z,5.43
2023-04-28T04:43:26.362Z,5.39
2023-04-28T04:46:12.405Z,5.19
2023-04-28T04:48:56.300Z,5.23
2023-04-28T04:51:39.840Z,5.31
2023-04-28T04:54:23.858Z,5.49
2023-04-28T04:57:07.938Z,5.31
2023-04-28T05:00:10.590Z,5.35
2023-04-28T05:02:54.792Z,5.40
2023-04-28T05:05:39.202Z,5.42
2023-04-28T05:08:30.251Z,5.34
2023-04-28T05:11:14.711Z,5.37
2023-04-28T05:13:58.438Z,5.52
2023-04-28T05:16:43.030Z,5.59
2023-04-28T05:19:37.842Z,5.79
2023-04-28T05:22:21.549Z,5.70
2023-04-28T05:25:05.647Z,5.68
2023-04-28T05:27:50.259Z,5.73
2023-04-28T05:30:34.444Z,5.85
2023-04-28T05:33:18.152Z,5.99
2023-04-28T05:36:01.709Z,6.11
2023-04-28T05:38:46.396Z,6.09
2023-04-28T05:41:29.976Z,6.33
2023-04-28T05:44:13.525Z,6.30
2023-04-28T05:46:57.254Z,6.43
2023-04-28T05:49:43.689Z,6.74
2023-04-28T05:52:30.788Z,6.89
2023-04-28T05:55:15.044Z,6.95
2023-04-28T05:58:00.074Z,7.06
2023-04-28T06:00:44.049Z,7.15
2023-04-28T06:03:30.664Z,7.13
2023-04-28T06:06:14.777Z,7.26
2023-04-28T06:08:59.199Z,7.47
2023-04-28T06:11:42.944Z,7.60
2023-04-28T06:14:26.490Z,7.63
2023-04-28T06:17:10.177Z,7.84
2023-04-28T06:19:54.832Z,8.19
2023-04-28T06:22:38.338Z,8.35
2023-04-28T06:25:23.406Z,8.62
2023-04-28T06:28:08.104Z,8.91
2023-04-28T06:30:51.755Z,9.01
2023-04-28T06:33:35.374Z,9.17
2023-04-28T06:36:19.091Z,9.25
2023-04-28T06:39:03.046Z,9.29
2023-04-28T06:41:47.347Z,9.43
2023-04-28T06:44:31.591Z,9.41
2023-04-28T06:47:15.385Z,9.65
2023-04-28T06:49:59.094Z,9.64
2023-04-28T06:52:42.867Z,9.80
2023-04-28T06:55:27.312Z,9.91
2023-04-28T06:58:11.690Z,9.98
2023-04-28T07:00:55.299Z,9.99
2023-04-28T07:03:39.529Z,9.97
2023-04-28T07:06:27.900Z,10.12
2023-04-28T07:09:11.592Z,10.17
2023-04-28T07:11:55.301Z,10.28
2023-04-28T07:14:39.655Z,10.28
2023-04-28T07:17:23.525Z,10.52
2023-04-28T07:20:08.028Z,10.38
2023-04-28T07:22:52.104Z,10.59
2023-04-28T07:25:36.703Z,10.59
2023-04-28T07:28:21.344Z,10.64
2023-04-28T07:31:05.947Z,10.83
2023-04-28T07:33:51.783Z,10.99
2023-04-28T07:36:36.366Z,11.19
2023-04-28T07:39:22.424Z,11.30
2023-04-28T07:42:06.124Z,11.40
2023-04-28T07:44:49.648Z,11.44
2023-04-28T07:47:38.679Z,11.73
2023-04-28T07:50:35.665Z,11.80
2023-04-28T07:53:21.409Z,11.81
2023-04-28T07:56:05.810Z,12.09
2023-04-28T07:58:49.689Z,12.12
2023-04-28T08:01:33.191Z,12.19
2023-04-28T08:04:16.927Z,12.31
2023-04-28T08:07:01.282Z,12.29
2023-04-28T08:09:47.890Z,12.53
2023-04-28T08:12:41.099Z,12.48
2023-04-28T08:15:26.017Z,12.86
2023-04-28T08:18:09.663Z,13.02
2023-04-28T08:20:53.409Z,13.20
2023-04-28T08:23:37.019Z,13.40
2023-04-28T08:26:20.622Z,13.67
2023-04-28T08:29:06.037Z,13.97
2023-04-28T08:31:50.168Z,14.16
2023-04-28T08:34:34.159Z,14.27
2023-04-28T08:37:17.944Z,14.73
2023-04-28T08:40:09.808Z,14.82
2023-04-28T08:42:55.741Z,14.54
2023-04-28T08:45:44.557Z,14.83
2023-04-28T08:48:33.515Z,14.88
2023-04-28T08:51:30.972Z,15.19
2023-04-28T08:54:26.593Z,15.11
2023-04-28T08:57:11.369Z,15.36
2023-04-28T08:59:55.016Z,15.26
2023-04-28T09:02:42.514Z,15.29
2023-04-28T09:05:27.049Z,15.41
2023-04-28T09:08:12.488Z,15.56
2023-04-28T09:11:10.908Z,15.56
2023-04-28T09:14:12.710Z,15.66
2023-04-28T09:16:57.326Z,15.58
2023-04-28T09:20:01.310Z,15.94
2023-04-28T09:23:21.472Z,16.26
2023-04-28T09:26:08.445Z,16.41
2023-04-28T09:28:52.555Z,15.80
2023-04-28T09:31:40.809Z,16.19
2023-04-28T09:34:29.804Z,16.30
2023-04-28T09:37:25.377Z,16.53
2023-04-28T09:40:12.224Z,16.50
2023-04-28T09:42:55.723Z,16.94
2023-04-28T09:45:42.725Z,17.03
2023-04-28T09:48:34.548Z,17.21
2023-04-28T09:51:21.497Z,17.53
2023-04-28T09:54:05.873Z,17.70
2023-04-28T09:56:51.558Z,17.95
2023-04-28T09:59:36.400Z,17.88
2023-04-28T10:02:42.764Z,17.70
2023-04-28T10:05:26.077Z,17.88
2023-04-28T10:08:21.907Z,17.82
2023-04-28T10:11:08.644Z,17.67
2023-04-28T10:13:54.100Z,17.96
2023-04-28T10:16:38.583Z,18.28
2023-04-28T10:19:22.057Z,18.38
2023-04-28T10:22:36.013Z,18.03
2023-04-28T10:25:32.738Z,18.18
2023-04-28T10:28:17.800Z,18.48
2023-04-28T10:31:23.671Z,18.43
2023-04-28T10:34:23.622Z,18.68
2023-04-28T10:37:07.216Z,18.78
2023-04-28T10:40:40.201Z,18.88
2023-04-28T10:43:27.444Z,18.92
2023-04-28T10:46:11.556Z,18.47
2023-04-28T10:48:56.353Z,17.93
2023-04-28T10:51:40.042Z,18.55
2023-04-28T10:54:23.796Z,19.21
2023-04-28T10:57:18.463Z,19.87
2023-04-28T11:00:28.709Z,19.87
2023-04-28T11:04:07.548Z,19.63
2023-04-28T11:07:13.562Z,19.65
2023-04-28T11:09:57.098Z,19.53
2023-04-28T11:13:25.434Z,19.30
2023-04-28T11:16:09.486Z,19.13
2023-04-28T11:19:05.105Z,19.47
2023-04-28T11:21:50.022Z,19.08
2023-04-28T11:24:33.622Z,19.03
2023-04-28T11:27:25.635Z,18.63
2023-04-28T11:30:30.225Z,18.90
2023-04-28T11:33:14.491Z,19.14
2023-04-28T11:35:58.187Z,19.23
2023-04-28T11:38:45.710Z,18.97
2023-04-28T11:41:29.238Z,18.71
2023-04-28T11:44:19.183Z,19.03
2023-04-28T11:47:05.033Z,19.30
2023-04-28T11:49:49.521Z,19.09
2023-04-28T11:52:33.128Z,19.42
2023-04-28T11:55:17.745Z,19.22
2023-04-28T11:58:28.061Z,19.46
2023-04-28T12:01:15.876Z,19.26
2023-04-28T12:03:59.711Z,19.30
2023-04-28T12:06:43.698Z,18.84
2023-04-28T12:09:27.282Z,19.26
2023-04-28T12:12:14.004Z,19.33
2023-04-28T12:15:01.545Z,19.95
2023-04-28T12:17:45.842Z,19.88
2023-04-28T12:20:38.326Z,20.18
2023-04-28T12:23:36.227Z,20.36
2023-04-28T12:26:25.821Z,19.98
2023-04-28T12:29:10.876Z,20.27
2023-04-28T12:31:54.659Z,20.23
2023-04-28T12:34:43.444Z,19.69
2023-04-28T12:37:26.978Z,20.06
2023-04-28T12:40:11.648Z,20.29
2023-04-28T12:42:55.264Z,19.78
2023-04-28T12:45:39.382Z,19.66
2023-04-28T12:48:25.760Z,19.69
2023-04-28T12:51:09.312Z,19.65
2023-04-28T12:53:52.839Z,19.49
2023-04-28T12:56:36.484Z,19.71
2023-04-28T12:59:20.215Z,19.86
2023-04-28T13:02:04.042Z,19.49
2023-04-28T13:04:47.901Z,19.60
2023-04-28T13:07:34.421Z,19.75
2023-04-28T13:10:19.095Z,19.68
2023-04-28T13:13:02.599Z,19.66
2023-04-28T13:15:46.606Z,19.52
2023-04-28T13:18:30.476Z,19.48
2023-04-28T13:21:14.024Z,19.74
2023-04-28T13:23:57.771Z,19.13
2023-04-28T13:26:41.572Z,19.37
2023-04-28T13:29:25.212Z,19.70
2023-04-28T13:32:08.990Z,19.08
2023-04-28T13:34:52.611Z,19.18
2023-04-28T13:37:39.273Z,19.33
2023-04-28T13:40:22.948Z,18.69
2023-04-28T13:43:06.657Z,18.68
2023-04-28T13:45:50.478Z,18.64
2023-04-28T13:48:36.357Z,18.50
2023-04-28T13:51:20.032Z,18.21
2023-04-28T13:54:11.745Z,18.36
2023-04-28T13:56:56.768Z,18.12
2023-04-28T13:59:40.346Z,18.27
2023-04-28T14:02:24.810Z,18.37
2023-04-28T14:05:09.039Z,18.56
2023-04-28T14:07:55.316Z,18.69
2023-04-28T14:10:38.911Z,18.25
2023-04-28T14:13:22.548Z,18.18
2023-04-28T14:16:07.338Z,18.14
2023-04-28T14:18:51.019Z,17.47
2023-04-28T14:21:35.327Z,18.55
2023-04-28T14:24:20.214Z,18.40
2023-04-28T14:27:04.770Z,18.51
2023-04-28T14:29:48.603Z,18.76
2023-04-28T14:32:34.083Z,18.45
2023-04-28T14:35:20.972Z,19.02
2023-04-28T14:38:04.661Z,19.18
2023-04-28T14:40:48.188Z,18.77
2023-04-28T14:43:31.707Z,19.14
2023-04-28T14:46:17.747Z,18.80
2023-04-28T14:49:03.257Z,19.00
2023-04-28T14:51:47.477Z,18.69
2023-04-28T14:54:31.008Z,18.90
2023-04-28T14:57:14.590Z,18.84
2023-04-28T14:59:58.416Z,18.27
2023-04-28T15:02:42.175Z,17.78
2023-04-28T15:05:25.813Z,17.91
2023-04-28T15:08:09.441Z,17.74
2023-04-28T15:10:52.976Z,17.69
2023-04-28T15:13:36.808Z,17.68
2023-04-28T15:16:20.410Z,17.91
2023-04-28T15:19:04.073Z,17.99
2023-04-28T15:21:47.677Z,17.84
2023-04-28T15:24:31.327Z,17.40
2023-04-28T15:27:15.076Z,17.45
2023-04-28T15:29:58.602Z,17.48
2023-04-28T15:32:43.151Z,17.25
2023-04-28T15:35:26.749Z,17.00
2023-04-28T15:38:11.093Z,17.35
2023-04-28T15:40:54.699Z,17.07
2023-04-28T15:43:38.641Z,16.61
2023-04-28T15:46:22.780Z,16.46
2023-04-28T15:49:06.449Z,16.62
2023-04-28T15:51:50.020Z,17.14
2023-04-28T15:54:33.657Z,16.78
2023-04-28T15:57:17.188Z,17.08
2023-04-28T16:00:00.902Z,17.17
2023-04-28T16:02:46.195Z,17.22
2023-04-28T16:05:29.979Z,17.02
2023-04-28T16:08:14.261Z,16.72
2023-04-28T16:10:58.171Z,16.84
2023-04-28T16:13:42.106Z,17.30
2023-04-28T16:16:25.863Z,17.25
2023-04-28T16:19:10.121Z,17.06
2023-04-28T16:21:53.645Z,16.89
2023-04-28T16:24:42.644Z,16.54
2023-04-28T16:27:26.440Z,16.71
2023-04-28T16:30:10.224Z,16.69
2023-04-28T16:32:54.518Z,17.06
2023-04-28T16:35:38.167Z,17.18
2023-04-28T16:38:21.917Z,16.70
2023-04-28T16:41:05.502Z,16.84
2023-04-28T16:43:49.012Z,16.44
2023-04-28T16:46:32.743Z,16.64
2023-04-28T16:49:16.674Z,16.57
2023-04-28T16:52:04.529Z,16.23
2023-04-28T17:03:15.260Z,16.92
2023-04-28T17:05:59.716Z,16.74
2023-04-28T17:08:43.351Z,16.29
2023-04-28T17:11:28.627Z,16.11
2023-04-28T17:14:16.549Z,16.28
2023-04-28T17:17:00.143Z,16.24
2023-04-28T17:19:44.097Z,15.90
2023-04-28T17:26:28.632Z,15.79
2023-04-28T17:29:12.249Z,15.79
2023-04-28T17:31:55.779Z,15.56
2023-04-28T17:34:39.368Z,15.49
2023-04-28T17:37:25.528Z,15.90
2023-04-28T17:40:12.559Z,16.28
2023-04-28T17:43:06.440Z,16.27
2023-04-28T17:45:54.550Z,15.99
2023-04-28T17:48:38.388Z,15.94
2023-04-28T17:51:22.020Z,15.62
2023-04-28T17:54:09.610Z,15.79
2023-04-28T17:56:54.837Z,15.83
2023-04-28T17:59:39.995Z,15.84
2023-04-28T18:02:23.693Z,16.04
2023-04-28T18:05:07.752Z,15.59
2023-04-28T18:07:52.642Z,15.38
2023-04-28T18:10:37.096Z,15.41
2023-04-28T18:13:20.628Z,15.51
2023-04-28T18:16:05.924Z,15.46
2023-04-28T18:18:50.141Z,15.34
2023-04-28T18:21:34.189Z,14.96
2023-04-28T18:24:17.701Z,15.22
2023-04-28T18:27:02.288Z,15.25
2023-04-28T18:29:46.070Z,15.26
2023-04-28T18:32:30.490Z,15.21
2023-04-28T18:35:15.168Z,15.00
2023-04-28T18:38:00.692Z,15.26
2023-04-28T18:40:44.282Z,15.46
2023-04-28T18:43:28.460Z,15.49
2023-04-28T18:46:12.064Z,15.12
2023-04-28T18:48:56.192Z,15.06
2023-04-28T18:51:39.723Z,14.79
2023-04-28T18:54:23.448Z,14.85
2023-04-28T18:57:07.789Z,14.54
2023-04-28T18:59:52.830Z,14.70
2023-04-28T19:02:36.582Z,14.90
2023-04-28T19:05:24.210Z,14.79
2023-04-28T19:08:11.907Z,14.56
2023-04-28T19:11:01.037Z,14.87
2023-04-28T19:13:57.554Z,14.64
2023-04-28T19:16:48.274Z,14.49
2023-04-28T19:19:32.590Z,14.26
2023-04-28T19:22:32.275Z,14.30
2023-04-28T19:25:16.819Z,14.48
2023-04-28T19:28:00.369Z,14.28
2023-04-28T19:30:43.959Z,14.07
2023-04-28T19:33:28.464Z,14.11
2023-04-28T19:36:12.621Z,14.34
2023-04-28T19:38:56.743Z,14.63
2023-04-28T19:41:40.440Z,14.31
2023-04-28T19:44:23.972Z,14.33
2023-04-28T19:47:07.718Z,14.23
2023-04-28T19:49:52.249Z,14.56
2023-04-28T19:52:36.912Z,14.56
2023-04-28T19:55:23.502Z,14.66
2023-04-28T19:58:07.079Z,14.24
2023-04-28T20:00:51.173Z,14.59
2023-04-28T20:03:36.546Z,14.52
2023-04-28T20:06:20.996Z,14.49
2023-04-28T20:09:07.613Z,14.56
2023-04-28T20:11:53.345Z,14.59
2023-04-28T20:14:37.733Z,14.48
2023-04-28T20:17:22.087Z,14.76
2023-04-28T20:20:08.216Z,14.67
2023-04-28T20:22:52.182Z,14.84
2023-04-28T20:29:12.238Z,14.61
2023-04-28T20:31:56.265Z,14.95
2023-04-28T20:34:41.451Z,15.07
2023-04-28T20:37:26.580Z,14.78
2023-04-28T20:40:11.697Z,14.81
2023-04-28T20:42:56.858Z,14.50
2023-04-28T20:45:42.244Z,14.46
2023-04-28T20:48:27.438Z,14.72
2023-04-28T20:51:16.272Z,14.51
2023-04-28T20:54:02.704Z,14.55
2023-04-28T20:56:47.062Z,14.67
2023-04-28T20:59:33.819Z,14.42
2023-04-28T21:02:17.439Z,14.33
2023-04-28T21:05:01.127Z,13.96
2023-04-28T21:07:44.792Z,13.88
2023-04-28T21:10:28.332Z,14.16
2023-04-28T21:13:13.151Z,13.69
2023-04-28T21:15:56.833Z,13.49
2023-04-28T21:18:40.379Z,13.45
2023-04-28T21:21:23.881Z,13.57
2023-04-28T21:24:10.738Z,13.48
2023-04-28T21:26:55.198Z,13.56
2023-04-28T21:29:38.954Z,13.84
2023-04-28T21:32:22.608Z,13.86
2023-04-28T21:35:07.121Z,13.46
2023-04-28T21:37:51.810Z,13.52
2023-04-28T21:40:35.688Z,13.45
2023-04-28T21:43:20.093Z,13.38
2023-04-28T21:46:03.742Z,13.69
2023-04-28T21:48:47.589Z,13.34
2023-04-28T21:51:32.141Z,13.33
2023-04-28T21:54:15.689Z,13.35
2023-04-28T21:56:59.186Z,13.19
2023-04-28T21:59:42.690Z,13.23
2023-04-28T22:02:26.311Z,13.41
2023-04-28T22:05:10.899Z,13.55
2023-04-28T22:07:54.481Z,13.54
2023-04-28T22:10:38.437Z,13.78
2023-04-28T22:13:23.077Z,13.78
2023-04-28T22:16:06.830Z,13.44
2023-04-28T22:18:50.364Z,13.99
2023-04-28T22:21:34.480Z,13.48
2023-04-28T22:24:18.434Z,13.18
2023-04-28T22:27:02.235Z,13.40
2023-04-28T22:29:45.866Z,13.41
2023-04-28T22:32:29.496Z,12.99
2023-04-28T22:35:13.872Z,13.51
2023-04-28T22:37:57.382Z,13.30
2023-04-28T22:40:40.708Z,13.73
2023-04-28T22:43:24.261Z,13.41
2023-04-28T22:46:08.117Z,13.72
2023-04-28T22:48:51.993Z,13.23
2023-04-28T22:51:36.199Z,13.73
2023-04-28T22:54:20.007Z,13.10
2023-04-28T22:57:04.050Z,13.37
2023-04-28T22:59:49.643Z,13.06
2023-04-28T23:02:34.992Z,13.26
2023-04-28T23:05:18.736Z,13.30
2023-04-28T23:08:02.733Z,13.15
2023-04-28T23:10:46.505Z,13.28
2023-04-28T23:13:29.989Z,13.05
2023-04-28T23:16:13.548Z,13.59
2023-04-28T23:18:57.049Z,13.57
2023-04-28T23:21:40.625Z,13.61
2023-04-28T23:24:24.206Z,13.29
2023-04-28T23:27:08.043Z,13.14
2023-04-28T23:29:51.730Z,13.22
2023-04-28T23:32:35.563Z,13.36
2023-04-28T23:35:19.081Z,13.39
2023-04-28T23:38:02.602Z,13.50
2023-04-28T23:40:46.531Z,13.28
2023-04-28T23:43:30.187Z,13.24
2023-04-28T23:46:13.763Z,13.27
2023-04-28T23:48:57.659Z,13.41
2023-04-28T23:51:41.310Z,13.17
2023-04-28T23:54:24.844Z,13.45
2023-04-28T23:57:08.562Z,13.53
2023-04-28T23:59:52.472Z,13.51
